sensor_id;sensor_type;location;lat;lon;timestamp;pressure;altitude;pressure_sealevel;temperature;humidity
37291;BME280;23175;-33.706;151.094;2023-05-16T00:00:59;100264.35;;;20.45;34.41
37291;BME280;23175;-33.706;151.094;2023-05-16T00:03:28;100263.56;;;17.62;36.83
37291;BME280;23175;-33.706;151.094;2023-05-16T00:05:59;100261.48;;;18.89;36.06
37291;BME280;23175;-33.706;151.094;2023-05-16T00:08:29;100261.51;;;19.02;38.04
37291;BME280;23175;-33.706;151.094;2023-05-16T00:11:00;100261.90;;;17.92;38.74
37291;BME280;23175;-33.706;151.094;2023-05-16T00:13:30;100259.16;;;15.16;43.46
37291;BME280;23175;-33.706;151.094;2023-05-16T00:16:00;100249.50;;;17.80;40.64
37291;BME280;23175;-33.706;151.094;2023-05-16T00:18:29;100248.76;;;17.82;40.20
37291;BME280;23175;-33.706;151.094;2023-05-16T00:21:00;100243.37;;;17.01;41.24
37291;BME280;23175;-33.706;151.094;2023-05-16T00:23:29;100236.27;;;16.19;41.89
37291;BME280;23175;-33.706;151.094;2023-05-16T00:26:00;100231.70;;;13.59;44.02
37291;BME280;23175;-33.706;151.094;2023-05-16T00:28:29;100226.60;;;16.09;41.10
37291;BME280;23175;-33.706;151.094;2023-05-16T00:31:00;100225.01;;;16.78;41.18
37291;BME280;23175;-33.706;151.094;2023-05-16T00:33:30;100224.06;;;16.00;41.19
37291;BME280;23175;-33.706;151.094;2023-05-16T00:36:00;100219.30;;;17.78;39.45
37291;BME280;23175;-33.706;151.094;2023-05-16T00:38:30;100219.28;;;14.79;42.72
37291;BME280;23175;-33.706;151.094;2023-05-16T00:41:00;100213.93;;;16.51;40.10
37291;BME280;23175;-33.706;151.094;2023-05-16T00:43:30;100207.64;;;11.97;44.15
37291;BME280;23175;-33.706;151.094;2023-05-16T00:46:00;100204.82;;;17.01;38.59
37291;BME280;23175;-33.706;151.094;2023-05-16T00:48:30;100199.21;;;15.17;39.81
37291;BME280;23175;-33.706;151.094;2023-05-16T00:51:01;100194.08;;;20.14;33.63
37291;BME280;23175;-33.706;151.094;2023-05-16T00:53:31;100187.35;;;16.81;34.90
37291;BME280;23175;-33.706;151.094;2023-05-16T00:56:01;100186.88;;;13.33;39.29
37291;BME280;23175;-33.706;151.094;2023-05-16T00:58:31;100180.16;;;19.17;32.89
37291;BME280;23175;-33.706;151.094;2023-05-16T01:01:02;100174.15;;;16.77;33.89
37291;BME280;23175;-33.706;151.094;2023-05-16T01:03:32;100172.94;;;20.59;30.56
37291;BME280;23175;-33.706;151.094;2023-05-16T01:06:02;100169.36;;;17.29;34.41
37291;BME280;23175;-33.706;151.094;2023-05-16T01:08:33;100166.37;;;16.78;34.60
37291;BME280;23175;-33.706;151.094;2023-05-16T01:11:11;100169.91;;;18.84;33.07
37291;BME280;23175;-33.706;151.094;2023-05-16T01:13:53;100164.20;;;17.53;35.44
37291;BME280;23175;-33.706;151.094;2023-05-16T01:16:29;100157.25;;;18.59;35.20
37291;BME280;23175;-33.706;151.094;2023-05-16T01:19:12;100157.79;;;15.80;39.37
37291;BME280;23175;-33.706;151.094;2023-05-16T01:21:52;100153.46;;;15.52;39.40
37291;BME280;23175;-33.706;151.094;2023-05-16T01:24:32;100145.82;;;16.03;39.32
37291;BME280;23175;-33.706;151.094;2023-05-16T01:27:04;100137.35;;;13.29;40.85
37291;BME280;23175;-33.706;151.094;2023-05-16T01:29:35;100129.35;;;14.40;40.64
37291;BME280;23175;-33.706;151.094;2023-05-16T01:32:05;100123.83;;;14.58;41.68
37291;BME280;23175;-33.706;151.094;2023-05-16T01:34:36;100116.94;;;13.76;42.31
37291;BME280;23175;-33.706;151.094;2023-05-16T01:37:11;100110.18;;;13.64;42.26
37291;BME280;23175;-33.706;151.094;2023-05-16T01:39:50;100103.94;;;16.11;39.82
37291;BME280;23175;-33.706;151.094;2023-05-16T01:42:24;100094.60;;;13.08;44.12
37291;BME280;23175;-33.706;151.094;2023-05-16T01:45:01;100087.23;;;14.96;41.84
37291;BME280;23175;-33.706;151.094;2023-05-16T01:47:37;100079.91;;;14.29;43.33
37291;BME280;23175;-33.706;151.094;2023-05-16T01:50:12;100078.00;;;12.87;44.62
37291;BME280;23175;-33.706;151.094;2023-05-16T01:52:48;100074.52;;;13.34;44.53
37291;BME280;23175;-33.706;151.094;2023-05-16T01:55:28;100069.81;;;12.37;44.94
37291;BME280;23175;-33.706;151.094;2023-05-16T01:57:59;100067.26;;;14.24;42.60
37291;BME280;23175;-33.706;151.094;2023-05-16T02:00:31;100059.17;;;16.24;39.96
37291;BME280;23175;-33.706;151.094;2023-05-16T02:03:02;100059.75;;;13.63;43.04
37291;BME280;23175;-33.706;151.094;2023-05-16T02:05:32;100056.93;;;12.22;45.02
37291;BME280;23175;-33.706;151.094;2023-05-16T02:08:03;100056.67;;;15.33;40.37
37291;BME280;23175;-33.706;151.094;2023-05-16T02:10:33;100051.22;;;13.03;43.67
37291;BME280;23175;-33.706;151.094;2023-05-16T02:13:04;100051.52;;;15.50;42.20
37291;BME280;23175;-33.706;151.094;2023-05-16T02:15:34;100048.67;;;15.23;41.34
37291;BME280;23175;-33.706;151.094;2023-05-16T02:18:06;100045.36;;;15.42;41.41
37291;BME280;23175;-33.706;151.094;2023-05-16T02:20:36;100031.47;;;16.92;38.78
37291;BME280;23175;-33.706;151.094;2023-05-16T02:23:07;100030.61;;;16.64;39.66
37291;BME280;23175;-33.706;151.094;2023-05-16T02:25:36;100025.22;;;16.61;40.01
37291;BME280;23175;-33.706;151.094;2023-05-16T02:28:06;100030.36;;;14.87;42.18
37291;BME280;23175;-33.706;151.094;2023-05-16T02:30:37;100025.82;;;13.83;42.28
37291;BME280;23175;-33.706;151.094;2023-05-16T02:33:06;100023.11;;;12.62;44.16
37291;BME280;23175;-33.706;151.094;2023-05-16T02:35:36;100017.55;;;12.76;44.33
37291;BME280;23175;-33.706;151.094;2023-05-16T02:38:06;100017.26;;;13.53;42.86
37291;BME280;23175;-33.706;151.094;2023-05-16T02:40:35;100018.20;;;13.72;42.24
37291;BME280;23175;-33.706;151.094;2023-05-16T02:43:05;100011.54;;;16.16;38.77
37291;BME280;23175;-33.706;151.094;2023-05-16T02:45:35;100011.71;;;15.83;40.27
37291;BME280;23175;-33.706;151.094;2023-05-16T02:48:05;100009.60;;;14.48;41.82
37291;BME280;23175;-33.706;151.094;2023-05-16T02:50:35;99998.50;;;14.81;42.76
37291;BME280;23175;-33.706;151.094;2023-05-16T02:53:06;99999.04;;;13.27;42.32
37291;BME280;23175;-33.706;151.094;2023-05-16T02:55:36;99993.68;;;16.40;37.29
37291;BME280;23175;-33.706;151.094;2023-05-16T02:58:06;99992.79;;;13.94;40.48
37291;BME280;23175;-33.706;151.094;2023-05-16T03:00:35;99993.71;;;13.94;41.35
37291;BME280;23175;-33.706;151.094;2023-05-16T03:03:05;99990.20;;;12.81;40.96
37291;BME280;23175;-33.706;151.094;2023-05-16T03:05:36;99990.85;;;15.49;37.42
37291;BME280;23175;-33.706;151.094;2023-05-16T03:08:06;99983.48;;;16.29;36.92
37291;BME280;23175;-33.706;151.094;2023-05-16T03:10:37;99983.67;;;16.07;37.31
37291;BME280;23175;-33.706;151.094;2023-05-16T03:13:06;99980.56;;;13.10;39.61
37291;BME280;23175;-33.706;151.094;2023-05-16T03:15:36;99980.99;;;13.90;38.65
37291;BME280;23175;-33.706;151.094;2023-05-16T03:18:06;99971.35;;;15.17;37.30
37291;BME280;23175;-33.706;151.094;2023-05-16T03:20:37;99974.74;;;14.34;37.19
37291;BME280;23175;-33.706;151.094;2023-05-16T03:23:07;99971.06;;;15.95;36.25
37291;BME280;23175;-33.706;151.094;2023-05-16T03:25:37;99965.42;;;16.90;35.55
37291;BME280;23175;-33.706;151.094;2023-05-16T03:28:08;99962.52;;;13.96;37.66
37291;BME280;23175;-33.706;151.094;2023-05-16T03:30:38;99955.08;;;16.98;35.72
37291;BME280;23175;-33.706;151.094;2023-05-16T03:33:08;99953.72;;;15.82;37.51
37291;BME280;23175;-33.706;151.094;2023-05-16T03:35:38;99952.11;;;16.04;36.00
37291;BME280;23175;-33.706;151.094;2023-05-16T03:38:08;99954.37;;;13.67;38.81
37291;BME280;23175;-33.706;151.094;2023-05-16T03:40:38;99951.15;;;15.23;37.24
37291;BME280;23175;-33.706;151.094;2023-05-16T03:43:08;99949.55;;;14.93;37.56
37291;BME280;23175;-33.706;151.094;2023-05-16T03:45:38;99945.50;;;13.13;40.35
37291;BME280;23175;-33.706;151.094;2023-05-16T03:48:09;99944.81;;;14.71;37.14
37291;BME280;23175;-33.706;151.094;2023-05-16T03:50:39;99938.23;;;15.38;36.58
37291;BME280;23175;-33.706;151.094;2023-05-16T03:53:08;99940.47;;;14.57;37.52
37291;BME280;23175;-33.706;151.094;2023-05-16T03:55:38;99942.24;;;14.07;37.44
37291;BME280;23175;-33.706;151.094;2023-05-16T03:58:08;99934.91;;;15.36;35.95
37291;BME280;23175;-33.706;151.094;2023-05-16T04:00:38;99938.29;;;15.94;34.75
37291;BME280;23175;-33.706;151.094;2023-05-16T04:03:08;99942.27;;;16.62;33.29
37291;BME280;23175;-33.706;151.094;2023-05-16T04:05:38;99938.37;;;16.31;33.77
37291;BME280;23175;-33.706;151.094;2023-05-16T04:08:08;99935.90;;;14.47;34.32
37291;BME280;23175;-33.706;151.094;2023-05-16T04:10:37;99930.96;;;16.68;33.37
37291;BME280;23175;-33.706;151.094;2023-05-16T04:13:07;99938.05;;;13.62;36.68
37291;BME280;23175;-33.706;151.094;2023-05-16T04:15:38;99936.26;;;13.82;35.82
37291;BME280;23175;-33.706;151.094;2023-05-16T04:18:08;99942.29;;;13.28;37.04
37291;BME280;23175;-33.706;151.094;2023-05-16T04:20:38;99939.90;;;15.09;34.22
37291;BME280;23175;-33.706;151.094;2023-05-16T04:23:07;99938.28;;;14.40;32.93
37291;BME280;23175;-33.706;151.094;2023-05-16T04:25:37;99936.72;;;15.35;32.96
37291;BME280;23175;-33.706;151.094;2023-05-16T04:28:08;99939.76;;;14.34;34.24
37291;BME280;23175;-33.706;151.094;2023-05-16T04:30:38;99940.49;;;13.97;36.42
37291;BME280;23175;-33.706;151.094;2023-05-16T04:33:09;99935.56;;;15.90;33.08
37291;BME280;23175;-33.706;151.094;2023-05-16T04:35:38;99934.12;;;16.23;32.95
37291;BME280;23175;-33.706;151.094;2023-05-16T04:38:08;99930.43;;;15.76;33.18
37291;BME280;23175;-33.706;151.094;2023-05-16T04:40:37;99932.44;;;14.03;35.26
37291;BME280;23175;-33.706;151.094;2023-05-16T04:43:07;99933.12;;;13.35;34.80
37291;BME280;23175;-33.706;151.094;2023-05-16T04:45:38;99928.90;;;14.27;34.62
37291;BME280;23175;-33.706;151.094;2023-05-16T04:48:09;99934.43;;;14.55;35.00
37291;BME280;23175;-33.706;151.094;2023-05-16T04:50:39;99933.42;;;15.89;33.63
37291;BME280;23175;-33.706;151.094;2023-05-16T04:53:09;99928.42;;;16.54;35.90
37291;BME280;23175;-33.706;151.094;2023-05-16T04:55:38;99926.24;;;16.76;36.21
37291;BME280;23175;-33.706;151.094;2023-05-16T04:58:08;99930.08;;;17.11;36.68
37291;BME280;23175;-33.706;151.094;2023-05-16T05:00:39;99928.57;;;16.16;37.48
37291;BME280;23175;-33.706;151.094;2023-05-16T05:03:09;99932.25;;;16.56;36.61
37291;BME280;23175;-33.706;151.094;2023-05-16T05:05:40;99934.33;;;16.49;37.08
37291;BME280;23175;-33.706;151.094;2023-05-16T05:08:10;99938.19;;;17.32;35.83
37291;BME280;23175;-33.706;151.094;2023-05-16T05:10:41;99940.87;;;14.14;39.48
37291;BME280;23175;-33.706;151.094;2023-05-16T05:13:11;99947.71;;;16.58;36.56
37291;BME280;23175;-33.706;151.094;2023-05-16T05:15:41;99950.48;;;18.16;34.31
37291;BME280;23175;-33.706;151.094;2023-05-16T05:18:12;99955.50;;;14.95;37.36
37291;BME280;23175;-33.706;151.094;2023-05-16T05:20:42;99958.64;;;16.53;34.33
37291;BME280;23175;-33.706;151.094;2023-05-16T05:23:13;99961.86;;;16.31;33.98
37291;BME280;23175;-33.706;151.094;2023-05-16T05:25:43;99966.67;;;16.53;34.09
37291;BME280;23175;-33.706;151.094;2023-05-16T05:28:13;99965.98;;;15.38;35.35
37291;BME280;23175;-33.706;151.094;2023-05-16T05:30:43;99965.82;;;16.87;33.26
37291;BME280;23175;-33.706;151.094;2023-05-16T05:33:16;99975.41;;;15.36;35.03
37291;BME280;23175;-33.706;151.094;2023-05-16T05:35:46;99970.99;;;16.60;33.48
37291;BME280;23175;-33.706;151.094;2023-05-16T05:38:17;99973.34;;;17.03;33.47
37291;BME280;23175;-33.706;151.094;2023-05-16T05:40:46;99977.34;;;17.44;33.32
37291;BME280;23175;-33.706;151.094;2023-05-16T05:43:16;99977.40;;;17.07;32.72
37291;BME280;23175;-33.706;151.094;2023-05-16T05:45:46;99980.65;;;16.43;33.71
37291;BME280;23175;-33.706;151.094;2023-05-16T05:48:15;99977.33;;;18.61;31.69
37291;BME280;23175;-33.706;151.094;2023-05-16T05:50:45;99973.76;;;18.77;31.52
37291;BME280;23175;-33.706;151.094;2023-05-16T05:53:15;99977.21;;;15.80;33.65
37291;BME280;23175;-33.706;151.094;2023-05-16T05:55:45;99979.27;;;15.80;34.16
37291;BME280;23175;-33.706;151.094;2023-05-16T05:58:16;99982.43;;;16.27;34.82
37291;BME280;23175;-33.706;151.094;2023-05-16T06:00:46;99989.22;;;16.28;34.73
37291;BME280;23175;-33.706;151.094;2023-05-16T06:03:17;99987.62;;;18.17;31.80
37291;BME280;23175;-33.706;151.094;2023-05-16T06:05:47;99990.70;;;16.06;33.75
37291;BME280;23175;-33.706;151.094;2023-05-16T06:08:18;99992.52;;;17.20;32.08
37291;BME280;23175;-33.706;151.094;2023-05-16T06:10:48;99994.24;;;16.05;33.28
37291;BME280;23175;-33.706;151.094;2023-05-16T06:13:18;99997.61;;;14.28;35.28
37291;BME280;23175;-33.706;151.094;2023-05-16T06:15:51;99999.13;;;16.56;33.31
37291;BME280;23175;-33.706;151.094;2023-05-16T06:18:21;100001.49;;;16.06;33.88
37291;BME280;23175;-33.706;151.094;2023-05-16T06:20:53;100008.69;;;15.40;34.70
37291;BME280;23175;-33.706;151.094;2023-05-16T06:23:22;100011.58;;;16.25;34.82
37291;BME280;23175;-33.706;151.094;2023-05-16T06:25:52;100014.73;;;14.77;34.02
37291;BME280;23175;-33.706;151.094;2023-05-16T06:28:23;100022.35;;;15.66;33.79
37291;BME280;23175;-33.706;151.094;2023-05-16T06:30:52;100020.57;;;16.83;33.49
37291;BME280;23175;-33.706;151.094;2023-05-16T06:33:22;100023.39;;;17.10;33.80
37291;BME280;23175;-33.706;151.094;2023-05-16T06:35:53;100026.23;;;17.39;33.91
37291;BME280;23175;-33.706;151.094;2023-05-16T06:38:23;100036.86;;;14.71;36.61
37291;BME280;23175;-33.706;151.094;2023-05-16T06:40:53;100036.75;;;15.41;34.71
37291;BME280;23175;-33.706;151.094;2023-05-16T06:43:24;100037.60;;;17.71;32.32
37291;BME280;23175;-33.706;151.094;2023-05-16T06:45:54;100043.72;;;15.81;35.61
37291;BME280;23175;-33.706;151.094;2023-05-16T06:48:24;100044.74;;;16.17;35.28
37291;BME280;23175;-33.706;151.094;2023-05-16T06:50:54;100047.68;;;15.82;34.37
37291;BME280;23175;-33.706;151.094;2023-05-16T06:53:29;100048.95;;;16.56;33.36
37291;BME280;23175;-33.706;151.094;2023-05-16T06:55:58;100054.03;;;17.47;32.92
37291;BME280;23175;-33.706;151.094;2023-05-16T06:58:29;100055.42;;;16.49;35.52
37291;BME280;23175;-33.706;151.094;2023-05-16T07:00:58;100060.65;;;13.51;38.58
37291;BME280;23175;-33.706;151.094;2023-05-16T07:03:29;100061.01;;;17.77;34.07
37291;BME280;23175;-33.706;151.094;2023-05-16T07:05:59;100064.02;;;17.96;34.26
37291;BME280;23175;-33.706;151.094;2023-05-16T07:08:28;100066.40;;;18.20;34.21
37291;BME280;23175;-33.706;151.094;2023-05-16T07:10:59;100074.58;;;17.79;34.79
37291;BME280;23175;-33.706;151.094;2023-05-16T07:13:29;100073.35;;;18.08;34.65
37291;BME280;23175;-33.706;151.094;2023-05-16T07:15:59;100073.40;;;18.18;34.47
37291;BME280;23175;-33.706;151.094;2023-05-16T07:18:29;100073.46;;;17.64;36.39
37291;BME280;23175;-33.706;151.094;2023-05-16T07:20:59;100075.11;;;17.67;35.24
37291;BME280;23175;-33.706;151.094;2023-05-16T07:23:29;100074.64;;;17.81;36.55
37291;BME280;23175;-33.706;151.094;2023-05-16T07:25:58;100076.60;;;17.97;36.02
37291;BME280;23175;-33.706;151.094;2023-05-16T07:28:29;100078.37;;;17.19;37.02
37291;BME280;23175;-33.706;151.094;2023-05-16T07:30:58;100080.81;;;17.24;37.54
37291;BME280;23175;-33.706;151.094;2023-05-16T07:33:29;100082.37;;;17.28;37.55
37291;BME280;23175;-33.706;151.094;2023-05-16T07:35:59;100086.18;;;16.75;37.92
37291;BME280;23175;-33.706;151.094;2023-05-16T07:38:29;100087.84;;;17.28;38.01
37291;BME280;23175;-33.706;151.094;2023-05-16T07:40:59;100094.88;;;16.82;38.11
37291;BME280;23175;-33.706;151.094;2023-05-16T07:43:29;100097.25;;;17.02;38.11
37291;BME280;23175;-33.706;151.094;2023-05-16T07:45:59;100101.60;;;16.42;38.24
37291;BME280;23175;-33.706;151.094;2023-05-16T07:48:29;100105.15;;;16.70;38.50
37291;BME280;23175;-33.706;151.094;2023-05-16T07:50:59;100106.54;;;17.03;38.63
37291;BME280;23175;-33.706;151.094;2023-05-16T07:53:29;100111.34;;;17.06;38.63
37291;BME280;23175;-33.706;151.094;2023-05-16T07:56:00;100116.70;;;16.44;39.05
37291;BME280;23175;-33.706;151.094;2023-05-16T07:58:30;100120.62;;;16.89;39.03
37291;BME280;23175;-33.706;151.094;2023-05-16T08:01:02;100124.10;;;16.43;39.44
37291;BME280;23175;-33.706;151.094;2023-05-16T08:03:32;100126.83;;;16.09;40.01
37291;BME280;23175;-33.706;151.094;2023-05-16T08:06:02;100128.82;;;16.22;39.71
37291;BME280;23175;-33.706;151.094;2023-05-16T08:08:32;100131.02;;;16.32;39.81
37291;BME280;23175;-33.706;151.094;2023-05-16T08:11:02;100134.46;;;16.39;39.74
37291;BME280;23175;-33.706;151.094;2023-05-16T08:13:33;100133.64;;;16.45;39.99
37291;BME280;23175;-33.706;151.094;2023-05-16T08:16:04;100134.62;;;16.03;40.15
37291;BME280;23175;-33.706;151.094;2023-05-16T08:18:34;100135.42;;;16.19;40.03
37291;BME280;23175;-33.706;151.094;2023-05-16T08:21:05;100138.88;;;16.24;40.17
37291;BME280;23175;-33.706;151.094;2023-05-16T08:23:36;100139.86;;;16.28;40.00
37291;BME280;23175;-33.706;151.094;2023-05-16T08:26:06;100142.31;;;15.85;40.44
37291;BME280;23175;-33.706;151.094;2023-05-16T08:28:36;100138.28;;;15.85;40.44
37291;BME280;23175;-33.706;151.094;2023-05-16T08:31:06;100139.29;;;14.63;41.26
37291;BME280;23175;-33.706;151.094;2023-05-16T08:33:36;100142.91;;;15.72;41.06
37291;BME280;23175;-33.706;151.094;2023-05-16T08:36:08;100142.52;;;15.34;41.00
37291;BME280;23175;-33.706;151.094;2023-05-16T08:38:38;100146.41;;;15.26;40.99
37291;BME280;23175;-33.706;151.094;2023-05-16T08:41:08;100146.09;;;15.79;41.00
37291;BME280;23175;-33.706;151.094;2023-05-16T08:43:38;100150.93;;;15.79;41.54
37291;BME280;23175;-33.706;151.094;2023-05-16T08:46:09;100155.75;;;15.67;41.32
37291;BME280;23175;-33.706;151.094;2023-05-16T08:48:42;100157.26;;;16.13;41.06
37291;BME280;23175;-33.706;151.094;2023-05-16T08:51:16;100158.57;;;15.32;41.41
37291;BME280;23175;-33.706;151.094;2023-05-16T08:53:53;100161.45;;;15.64;40.78
37291;BME280;23175;-33.706;151.094;2023-05-16T08:56:26;100165.13;;;15.48;40.90
37291;BME280;23175;-33.706;151.094;2023-05-16T08:58:57;100168.03;;;15.12;41.08
37291;BME280;23175;-33.706;151.094;2023-05-16T09:01:28;100170.05;;;15.44;41.93
37291;BME280;23175;-33.706;151.094;2023-05-16T09:03:59;100172.78;;;15.32;42.14
37291;BME280;23175;-33.706;151.094;2023-05-16T09:06:29;100172.33;;;15.23;41.61
37291;BME280;23175;-33.706;151.094;2023-05-16T09:08:59;100174.00;;;15.18;41.90
37291;BME280;23175;-33.706;151.094;2023-05-16T09:11:29;100179.39;;;15.54;41.55
37291;BME280;23175;-33.706;151.094;2023-05-16T09:14:00;100182.03;;;15.33;42.38
37291;BME280;23175;-33.706;151.094;2023-05-16T09:16:30;100184.62;;;15.39;41.70
37291;BME280;23175;-33.706;151.094;2023-05-16T09:19:02;100187.59;;;15.28;41.16
37291;BME280;23175;-33.706;151.094;2023-05-16T09:21:33;100192.18;;;15.18;41.47
37291;BME280;23175;-33.706;151.094;2023-05-16T09:24:05;100193.13;;;14.75;42.63
37291;BME280;23175;-33.706;151.094;2023-05-16T09:26:37;100196.24;;;15.16;42.46
37291;BME280;23175;-33.706;151.094;2023-05-16T09:29:12;100194.81;;;15.70;41.89
37291;BME280;23175;-33.706;151.094;2023-05-16T09:31:43;100196.55;;;15.83;41.78
37291;BME280;23175;-33.706;151.094;2023-05-16T09:34:13;100199.97;;;15.16;41.65
37291;BME280;23175;-33.706;151.094;2023-05-16T09:36:43;100203.32;;;15.25;42.01
37291;BME280;23175;-33.706;151.094;2023-05-16T09:39:16;100202.74;;;14.84;42.78
37291;BME280;23175;-33.706;151.094;2023-05-16T09:41:45;100201.04;;;14.94;43.12
37291;BME280;23175;-33.706;151.094;2023-05-16T09:44:21;100205.34;;;15.28;42.49
37291;BME280;23175;-33.706;151.094;2023-05-16T09:46:54;100208.69;;;14.77;41.95
37291;BME280;23175;-33.706;151.094;2023-05-16T09:49:23;100210.30;;;15.17;42.03
37291;BME280;23175;-33.706;151.094;2023-05-16T09:51:54;100214.11;;;14.60;43.36
37291;BME280;23175;-33.706;151.094;2023-05-16T09:54:35;100215.49;;;14.77;43.38
37291;BME280;23175;-33.706;151.094;2023-05-16T09:57:05;100217.20;;;14.09;42.83
37291;BME280;23175;-33.706;151.094;2023-05-16T09:59:37;100222.12;;;14.78;42.35
37291;BME280;23175;-33.706;151.094;2023-05-16T10:02:08;100224.74;;;15.16;41.88
37291;BME280;23175;-33.706;151.094;2023-05-16T10:04:39;100227.65;;;14.87;42.49
37291;BME280;23175;-33.706;151.094;2023-05-16T10:07:09;100229.32;;;14.50;42.94
37291;BME280;23175;-33.706;151.094;2023-05-16T10:09:40;100234.04;;;14.56;42.67
37291;BME280;23175;-33.706;151.094;2023-05-16T10:12:13;100236.47;;;14.66;42.44
37291;BME280;23175;-33.706;151.094;2023-05-16T10:14:46;100240.46;;;14.66;42.44
37291;BME280;23175;-33.706;151.094;2023-05-16T10:17:16;100243.99;;;14.68;42.99
37291;BME280;23175;-33.706;151.094;2023-05-16T10:19:48;100242.26;;;14.56;42.93
37291;BME280;23175;-33.706;151.094;2023-05-16T10:22:20;100243.18;;;14.44;42.68
37291;BME280;23175;-33.706;151.094;2023-05-16T10:25:07;100246.34;;;14.32;42.70
37291;BME280;23175;-33.706;151.094;2023-05-16T10:27:38;100252.65;;;13.77;43.36
37291;BME280;23175;-33.706;151.094;2023-05-16T10:30:09;100256.82;;;13.90;44.05
37291;BME280;23175;-33.706;151.094;2023-05-16T10:32:40;100262.07;;;14.04;43.59
37291;BME280;23175;-33.706;151.094;2023-05-16T10:35:11;100262.18;;;14.11;42.79
37291;BME280;23175;-33.706;151.094;2023-05-16T10:37:41;100261.53;;;13.84;43.23
37291;BME280;23175;-33.706;151.094;2023-05-16T10:40:12;100262.25;;;13.78;43.17
37291;BME280;23175;-33.706;151.094;2023-05-16T10:42:55;100265.92;;;13.51;44.09
37291;BME280;23175;-33.706;151.094;2023-05-16T10:45:26;100264.40;;;13.71;44.42
37291;BME280;23175;-33.706;151.094;2023-05-16T10:47:58;100267.23;;;13.84;43.40
37291;BME280;23175;-33.706;151.094;2023-05-16T10:50:37;100272.62;;;13.89;43.84
37291;BME280;23175;-33.706;151.094;2023-05-16T10:53:14;100269.72;;;14.79;43.09
37291;BME280;23175;-33.706;151.094;2023-05-16T10:56:05;100269.28;;;14.05;43.99
37291;BME280;23175;-33.706;151.094;2023-05-16T10:58:45;100270.53;;;14.65;43.53
37291;BME280;23175;-33.706;151.094;2023-05-16T11:01:21;100273.09;;;14.86;43.17
37291;BME280;23175;-33.706;151.094;2023-05-16T11:04:27;100272.68;;;13.93;43.53
37291;BME280;23175;-33.706;151.094;2023-05-16T11:07:16;100275.80;;;14.21;43.27
37291;BME280;23175;-33.706;151.094;2023-05-16T11:10:00;100275.96;;;14.25;44.30
37291;BME280;23175;-33.706;151.094;2023-05-16T11:12:38;100277.81;;;14.15;43.79
37291;BME280;23175;-33.706;151.094;2023-05-16T11:15:23;100280.25;;;13.98;43.55
37291;BME280;23175;-33.706;151.094;2023-05-16T11:18:05;100279.79;;;14.21;43.36
37291;BME280;23175;-33.706;151.094;2023-05-16T11:20:37;100277.62;;;14.23;44.08
37291;BME280;23175;-33.706;151.094;2023-05-16T11:23:22;100278.80;;;14.65;43.32
37291;BME280;23175;-33.706;151.094;2023-05-16T11:25:55;100275.81;;;13.92;43.81
37291;BME280;23175;-33.706;151.094;2023-05-16T11:28:26;100270.64;;;14.21;43.34
37291;BME280;23175;-33.706;151.094;2023-05-16T11:30:58;100272.03;;;13.94;43.89
37291;BME280;23175;-33.706;151.094;2023-05-16T11:33:31;100275.05;;;14.20;44.04
37291;BME280;23175;-33.706;151.094;2023-05-16T11:36:03;100278.21;;;14.40;43.24
37291;BME280;23175;-33.706;151.094;2023-05-16T11:38:33;100275.68;;;14.17;43.41
37291;BME280;23175;-33.706;151.094;2023-05-16T11:41:06;100275.92;;;13.92;43.74
37291;BME280;23175;-33.706;151.094;2023-05-16T11:43:41;100273.66;;;14.05;44.48
37291;BME280;23175;-33.706;151.094;2023-05-16T11:46:13;100270.65;;;14.08;43.63
37291;BME280;23175;-33.706;151.094;2023-05-16T11:48:44;100265.54;;;13.91;43.61
37291;BME280;23175;-33.706;151.094;2023-05-16T11:51:18;100259.60;;;14.05;43.86
37291;BME280;23175;-33.706;151.094;2023-05-16T11:53:49;100256.18;;;14.65;44.58
37291;BME280;23175;-33.706;151.094;2023-05-16T11:56:20;100250.83;;;14.20;43.46
37291;BME280;23175;-33.706;151.094;2023-05-16T11:58:51;100249.26;;;14.22;42.97
37291;BME280;23175;-33.706;151.094;2023-05-16T12:01:22;100254.70;;;14.04;43.39
37291;BME280;23175;-33.706;151.094;2023-05-16T12:03:57;100253.88;;;14.53;44.50
37291;BME280;23175;-33.706;151.094;2023-05-16T12:06:27;100251.84;;;14.22;44.25
37291;BME280;23175;-33.706;151.094;2023-05-16T12:08:57;100249.45;;;13.94;43.91
37291;BME280;23175;-33.706;151.094;2023-05-16T12:11:27;100250.60;;;13.88;44.11
37291;BME280;23175;-33.706;151.094;2023-05-16T12:13:59;100250.27;;;13.92;44.12
37291;BME280;23175;-33.706;151.094;2023-05-16T12:16:30;100247.54;;;13.66;44.43
37291;BME280;23175;-33.706;151.094;2023-05-16T12:19:01;100252.15;;;13.79;44.28
37291;BME280;23175;-33.706;151.094;2023-05-16T12:21:31;100257.22;;;13.91;44.98
37291;BME280;23175;-33.706;151.094;2023-05-16T12:24:01;100256.00;;;13.14;45.10
37291;BME280;23175;-33.706;151.094;2023-05-16T12:26:33;100255.68;;;13.47;44.57
37291;BME280;23175;-33.706;151.094;2023-05-16T12:29:03;100259.61;;;13.43;44.62
37291;BME280;23175;-33.706;151.094;2023-05-16T12:31:39;100261.56;;;14.04;44.66
37291;BME280;23175;-33.706;151.094;2023-05-16T12:34:20;100262.63;;;13.23;44.90
37291;BME280;23175;-33.706;151.094;2023-05-16T12:36:53;100263.65;;;14.08;44.55
37291;BME280;23175;-33.706;151.094;2023-05-16T12:39:23;100264.13;;;13.73;44.69
37291;BME280;23175;-33.706;151.094;2023-05-16T12:41:53;100265.92;;;13.98;44.69
37291;BME280;23175;-33.706;151.094;2023-05-16T12:44:24;100267.60;;;13.33;44.81